sensor_id;sensor_type;location;lat;lon;timestamp;P1;durP1;ratioP1;P2;durP2;ratioP2
2720;SDS011;1368;49.484;11.112;2023-11-21T00:02:24;5.93;;;3.10;;
2720;SDS011;1368;49.484;11.112;2023-11-21T00:04:50;5.53;;;2.63;;
2720;SDS011;1368;49.484;11.112;2023-11-21T00:07:17;5.93;;;3.03;;
2720;SDS011;1368;49.484;11.112;2023-11-21T00:09:42;6.73;;;2.50;;
2720;SDS011;1368;49.484;11.112;2023-11-21T00:12:08;4.30;;;2.17;;
2720;SDS011;1368;49.484;11.112;2023-11-21T00:14:37;8.30;;;2.70;;
2720;SDS011;1368;49.484;11.112;2023-11-21T00:17:03;5.27;;;2.33;;
2720;SDS011;1368;49.484;11.112;2023-11-21T00:19:29;6.23;;;2.30;;
2720;SDS011;1368;49.484;11.112;2023-11-21T00:21:55;3.33;;;2.37;;
2720;SDS011;1368;49.484;11.112;2023-11-21T00:24:22;4.60;;;2.43;;
2720;SDS011;1368;49.484;11.112;2023-11-21T00:26:49;5.10;;;2.90;;
2720;SDS011;1368;49.484;11.112;2023-11-21T00:29:15;5.47;;;2.80;;
2720;SDS011;1368;49.484;11.112;2023-11-21T00:31:42;6.13;;;2.07;;
2720;SDS011;1368;49.484;11.112;2023-11-21T00:34:09;6.50;;;2.13;;
2720;SDS011;1368;49.484;11.112;2023-11-21T00:36:36;4.30;;;2.67;;
2720;SDS011;1368;49.484;11.112;2023-11-21T00:39:02;6.73;;;2.87;;
2720;SDS011;1368;49.484;11.112;2023-11-21T00:41:28;4.47;;;2.53;;
2720;SDS011;1368;49.484;11.112;2023-11-21T00:43:53;5.43;;;3.00;;
2720;SDS011;1368;49.484;11.112;2023-11-21T00:46:20;3.97;;;2.80;;
2720;SDS011;1368;49.484;11.112;2023-11-21T00:48:46;4.20;;;2.83;;
2720;SDS011;1368;49.484;11.112;2023-11-21T00:51:11;10.90;;;3.40;;
2720;SDS011;1368;49.484;11.112;2023-11-21T00:53:37;6.67;;;3.10;;
2720;SDS011;1368;49.484;11.112;2023-11-21T00:56:03;6.90;;;2.83;;
2720;SDS011;1368;49.484;11.112;2023-11-21T00:58:28;6.47;;;2.80;;
2720;SDS011;1368;49.484;11.112;2023-11-21T01:00:55;13.00;;;4.07;;
2720;SDS011;1368;49.484;11.112;2023-11-21T01:03:21;5.13;;;2.60;;
2720;SDS011;1368;49.484;11.112;2023-11-21T01:05:46;5.50;;;3.33;;
2720;SDS011;1368;49.484;11.112;2023-11-21T01:08:14;5.07;;;2.90;;
2720;SDS011;1368;49.484;11.112;2023-11-21T01:10:40;10.47;;;3.20;;
2720;SDS011;1368;49.484;11.112;2023-11-21T01:13:05;3.87;;;2.60;;
2720;SDS011;1368;49.484;11.112;2023-11-21T01:15:32;4.13;;;2.83;;
2720;SDS011;1368;49.484;11.112;2023-11-21T01:17:57;5.33;;;3.00;;
2720;SDS011;1368;49.484;11.112;2023-11-21T01:20:23;6.83;;;2.70;;
2720;SDS011;1368;49.484;11.112;2023-11-21T01:22:49;4.33;;;2.73;;
2720;SDS011;1368;49.484;11.112;2023-11-21T01:25:14;7.70;;;3.40;;
2720;SDS011;1368;49.484;11.112;2023-11-21T01:27:41;4.47;;;3.03;;
2720;SDS011;1368;49.484;11.112;2023-11-21T01:30:07;7.70;;;3.83;;
2720;SDS011;1368;49.484;11.112;2023-11-21T01:32:35;7.40;;;3.90;;
2720;SDS011;1368;49.484;11.112;2023-11-21T01:35:01;5.90;;;3.47;;
2720;SDS011;1368;49.484;11.112;2023-11-21T01:37:27;6.10;;;3.30;;
2720;SDS011;1368;49.484;11.112;2023-11-21T01:39:53;5.43;;;3.17;;
2720;SDS011;1368;49.484;11.112;2023-11-21T01:42:20;8.80;;;4.70;;
2720;SDS011;1368;49.484;11.112;2023-11-21T01:44:46;5.77;;;3.40;;
2720;SDS011;1368;49.484;11.112;2023-11-21T01:47:11;7.10;;;3.07;;
2720;SDS011;1368;49.484;11.112;2023-11-21T01:49:39;8.10;;;3.30;;
2720;SDS011;1368;49.484;11.112;2023-11-21T01:52:05;9.40;;;3.90;;
2720;SDS011;1368;49.484;11.112;2023-11-21T01:54:31;9.13;;;3.33;;
2720;SDS011;1368;49.484;11.112;2023-11-21T01:56:58;5.83;;;3.37;;
2720;SDS011;1368;49.484;11.112;2023-11-21T01:59:28;7.90;;;3.70;;
2720;SDS011;1368;49.484;11.112;2023-11-21T02:02:04;9.20;;;4.10;;
2720;SDS011;1368;49.484;11.112;2023-11-21T02:04:34;11.80;;;4.10;;
2720;SDS011;1368;49.484;11.112;2023-11-21T02:07:01;8.67;;;3.27;;
2720;SDS011;1368;49.484;11.112;2023-11-21T02:09:30;13.27;;;3.40;;
2720;SDS011;1368;49.484;11.112;2023-11-21T02:11:56;6.70;;;2.97;;
2720;SDS011;1368;49.484;11.112;2023-11-21T02:14:23;9.53;;;4.00;;
2720;SDS011;1368;49.484;11.112;2023-11-21T02:16:51;5.50;;;3.43;;
2720;SDS011;1368;49.484;11.112;2023-11-21T02:19:17;5.73;;;3.17;;
2720;SDS011;1368;49.484;11.112;2023-11-21T02:21:55;6.20;;;3.10;;
2720;SDS011;1368;49.484;11.112;2023-11-21T02:24:24;7.17;;;2.83;;
2720;SDS011;1368;49.484;11.112;2023-11-21T02:26:50;7.93;;;3.37;;
2720;SDS011;1368;49.484;11.112;2023-11-21T02:29:17;6.20;;;3.60;;
2720;SDS011;1368;49.484;11.112;2023-11-21T02:31:43;6.40;;;3.33;;
2720;SDS011;1368;49.484;11.112;2023-11-21T02:34:16;5.37;;;3.00;;
2720;SDS011;1368;49.484;11.112;2023-11-21T02:36:43;12.47;;;3.30;;
2720;SDS011;1368;49.484;11.112;2023-11-21T02:39:09;7.50;;;2.80;;
2720;SDS011;1368;49.484;11.112;2023-11-21T02:41:36;6.10;;;3.07;;
2720;SDS011;1368;49.484;11.112;2023-11-21T02:44:03;7.40;;;2.97;;
2720;SDS011;1368;49.484;11.112;2023-11-21T02:46:29;5.80;;;2.80;;
2720;SDS011;1368;49.484;11.112;2023-11-21T02:48:54;4.30;;;2.70;;
2720;SDS011;1368;49.484;11.112;2023-11-21T02:51:20;4.37;;;2.87;;
2720;SDS011;1368;49.484;11.112;2023-11-21T02:53:46;4.23;;;3.13;;
2720;SDS011;1368;49.484;11.112;2023-11-21T02:56:11;4.03;;;2.67;;
2720;SDS011;1368;49.484;11.112;2023-11-21T02:58:37;4.40;;;2.87;;
2720;SDS011;1368;49.484;11.112;2023-11-21T03:01:06;5.50;;;3.10;;
2720;SDS011;1368;49.484;11.112;2023-11-21T03:03:33;7.80;;;2.50;;
2720;SDS011;1368;49.484;11.112;2023-11-21T03:05:58;11.00;;;3.63;;
2720;SDS011;1368;49.484;11.112;2023-11-21T03:08:24;4.27;;;2.80;;
2720;SDS011;1368;49.484;11.112;2023-11-21T03:10:49;5.60;;;3.20;;
2720;SDS011;1368;49.484;11.112;2023-11-21T03:13:15;3.57;;;2.83;;
2720;SDS011;1368;49.484;11.112;2023-11-21T03:15:40;6.33;;;3.63;;
2720;SDS011;1368;49.484;11.112;2023-11-21T03:18:07;5.40;;;3.40;;
2720;SDS011;1368;49.484;11.112;2023-11-21T03:20:33;4.60;;;2.77;;
2720;SDS011;1368;49.484;11.112;2023-11-21T03:22:59;6.63;;;2.83;;
2720;SDS011;1368;49.484;11.112;2023-11-21T03:25:25;6.53;;;3.20;;
2720;SDS011;1368;49.484;11.112;2023-11-21T03:27:50;10.97;;;3.90;;
2720;SDS011;1368;49.484;11.112;2023-11-21T03:30:16;5.73;;;3.30;;
2720;SDS011;1368;49.484;11.112;2023-11-21T03:32:42;9.33;;;3.50;;
2720;SDS011;1368;49.484;11.112;2023-11-21T03:35:07;7.87;;;3.80;;
2720;SDS011;1368;49.484;11.112;2023-11-21T03:37:33;10.83;;;4.67;;
2720;SDS011;1368;49.484;11.112;2023-11-21T03:39:58;3.77;;;2.73;;
2720;SDS011;1368;49.484;11.112;2023-11-21T03:42:24;7.83;;;4.27;;
2720;SDS011;1368;49.484;11.112;2023-11-21T03:44:51;6.47;;;3.87;;
2720;SDS011;1368;49.484;11.112;2023-11-21T03:47:17;10.07;;;4.33;;
2720;SDS011;1368;49.484;11.112;2023-11-21T03:49:44;9.47;;;4.07;;
2720;SDS011;1368;49.484;11.112;2023-11-21T03:52:10;11.13;;;4.00;;
2720;SDS011;1368;49.484;11.112;2023-11-21T03:54:36;5.93;;;3.57;;
2720;SDS011;1368;49.484;11.112;2023-11-21T03:57:02;10.27;;;4.67;;
2720;SDS011;1368;49.484;11.112;2023-11-21T03:59:28;4.37;;;3.30;;
2720;SDS011;1368;49.484;11.112;2023-11-21T04:01:55;12.17;;;3.90;;
2720;SDS011;1368;49.484;11.112;2023-11-21T04:04:21;9.70;;;4.23;;
2720;SDS011;1368;49.484;11.112;2023-11-21T04:06:47;6.77;;;4.20;;
2720;SDS011;1368;49.484;11.112;2023-11-21T04:09:13;8.03;;;3.90;;
2720;SDS011;1368;49.484;11.112;2023-11-21T04:11:38;5.50;;;3.67;;
2720;SDS011;1368;49.484;11.112;2023-11-21T04:14:04;5.77;;;4.20;;
2720;SDS011;1368;49.484;11.112;2023-11-21T04:16:29;5.77;;;4.77;;
2720;SDS011;1368;49.484;11.112;2023-11-21T04:18:55;8.33;;;4.83;;
2720;SDS011;1368;49.484;11.112;2023-11-21T04:21:20;8.20;;;4.23;;
2720;SDS011;1368;49.484;11.112;2023-11-21T04:23:46;6.03;;;4.50;;
2720;SDS011;1368;49.484;11.112;2023-11-21T04:26:11;8.67;;;4.73;;
2720;SDS011;1368;49.484;11.112;2023-11-21T04:28:37;8.57;;;4.30;;
2720;SDS011;1368;49.484;11.112;2023-11-21T04:31:02;7.90;;;5.10;;
2720;SDS011;1368;49.484;11.112;2023-11-21T04:33:28;8.60;;;5.10;;
2720;SDS011;1368;49.484;11.112;2023-11-21T04:35:54;8.83;;;4.70;;
2720;SDS011;1368;49.484;11.112;2023-11-21T04:38:19;8.50;;;4.57;;
2720;SDS011;1368;49.484;11.112;2023-11-21T04:40:45;9.80;;;4.90;;
2720;SDS011;1368;49.484;11.112;2023-11-21T04:43:10;14.03;;;5.33;;
2720;SDS011;1368;49.484;11.112;2023-11-21T04:45:37;5.80;;;4.60;;
2720;SDS011;1368;49.484;11.112;2023-11-21T04:48:02;9.33;;;5.17;;
2720;SDS011;1368;49.484;11.112;2023-11-21T04:50:28;8.73;;;4.97;;
2720;SDS011;1368;49.484;11.112;2023-11-21T04:52:54;6.93;;;4.13;;
2720;SDS011;1368;49.484;11.112;2023-11-21T04:55:19;7.50;;;4.70;;
2720;SDS011;1368;49.484;11.112;2023-11-21T04:57:45;12.57;;;4.40;;
2720;SDS011;1368;49.484;11.112;2023-11-21T05:00:12;7.50;;;4.90;;
2720;SDS011;1368;49.484;11.112;2023-11-21T05:02:38;11.77;;;4.07;;
2720;SDS011;1368;49.484;11.112;2023-11-21T05:05:05;8.13;;;4.57;;
2720;SDS011;1368;49.484;11.112;2023-11-21T05:07:31;5.10;;;3.47;;
2720;SDS011;1368;49.484;11.112;2023-11-21T05:09:57;11.33;;;4.17;;
2720;SDS011;1368;49.484;11.112;2023-11-21T05:12:23;9.10;;;4.40;;
2720;SDS011;1368;49.484;11.112;2023-11-21T05:14:49;6.87;;;4.00;;
2720;SDS011;1368;49.484;11.112;2023-11-21T05:17:17;5.60;;;3.87;;
2720;SDS011;1368;49.484;11.112;2023-11-21T05:19:43;3.87;;;3.37;;
2720;SDS011;1368;49.484;11.112;2023-11-21T05:22:10;5.20;;;3.83;;
2720;SDS011;1368;49.484;11.112;2023-11-21T05:24:37;6.93;;;4.37;;
2720;SDS011;1368;49.484;11.112;2023-11-21T05:27:04;8.80;;;4.50;;
2720;SDS011;1368;49.484;11.112;2023-11-21T05:29:29;8.17;;;5.03;;
2720;SDS011;1368;49.484;11.112;2023-11-21T05:31:55;9.90;;;4.27;;
2720;SDS011;1368;49.484;11.112;2023-11-21T05:34:20;9.10;;;4.20;;
2720;SDS011;1368;49.484;11.112;2023-11-21T05:36:48;14.53;;;5.00;;
2720;SDS011;1368;49.484;11.112;2023-11-21T05:39:14;12.10;;;4.80;;
2720;SDS011;1368;49.484;11.112;2023-11-21T05:41:42;8.70;;;5.33;;
2720;SDS011;1368;49.484;11.112;2023-11-21T05:44:08;10.87;;;5.13;;
2720;SDS011;1368;49.484;11.112;2023-11-21T05:46:34;14.67;;;5.80;;
2720;SDS011;1368;49.484;11.112;2023-11-21T05:48:59;9.50;;;4.93;;
2720;SDS011;1368;49.484;11.112;2023-11-21T05:51:25;9.93;;;5.10;;
2720;SDS011;1368;49.484;11.112;2023-11-21T05:53:50;8.97;;;5.10;;
2720;SDS011;1368;49.484;11.112;2023-11-21T05:56:16;10.50;;;5.40;;
2720;SDS011;1368;49.484;11.112;2023-11-21T05:58:43;6.77;;;5.63;;
2720;SDS011;1368;49.484;11.112;2023-11-21T06:01:08;10.73;;;5.40;;
2720;SDS011;1368;49.484;11.112;2023-11-21T06:03:34;11.00;;;5.30;;
2720;SDS011;1368;49.484;11.112;2023-11-21T06:06:00;8.00;;;4.20;;
2720;SDS011;1368;49.484;11.112;2023-11-21T06:08:25;9.87;;;5.47;;
2720;SDS011;1368;49.484;11.112;2023-11-21T06:10:51;8.73;;;4.90;;
2720;SDS011;1368;49.484;11.112;2023-11-21T06:13:17;6.00;;;4.10;;
2720;SDS011;1368;49.484;11.112;2023-11-21T06:15:45;9.83;;;5.30;;
2720;SDS011;1368;49.484;11.112;2023-11-21T06:18:11;7.83;;;4.50;;
2720;SDS011;1368;49.484;11.112;2023-11-21T06:20:36;12.63;;;5.87;;
2720;SDS011;1368;49.484;11.112;2023-11-21T06:23:02;13.27;;;6.40;;
2720;SDS011;1368;49.484;11.112;2023-11-21T06:25:28;16.20;;;6.53;;
2720;SDS011;1368;49.484;11.112;2023-11-21T06:27:54;11.07;;;5.83;;
2720;SDS011;1368;49.484;11.112;2023-11-21T06:30:20;12.63;;;8.17;;
2720;SDS011;1368;49.484;11.112;2023-11-21T06:32:46;8.70;;;6.27;;
2720;SDS011;1368;49.484;11.112;2023-11-21T06:35:12;12.97;;;6.03;;
2720;SDS011;1368;49.484;11.112;2023-11-21T06:37:38;12.60;;;7.20;;
2720;SDS011;1368;49.484;11.112;2023-11-21T06:40:04;11.00;;;7.40;;
2720;SDS011;1368;49.484;11.112;2023-11-21T06:42:30;14.33;;;8.30;;
2720;SDS011;1368;49.484;11.112;2023-11-21T06:44:56;11.17;;;8.80;;
2720;SDS011;1368;49.484;11.112;2023-11-21T06:47:25;13.73;;;8.07;;
2720;SDS011;1368;49.484;11.112;2023-11-21T06:49:51;15.93;;;9.77;;
2720;SDS011;1368;49.484;11.112;2023-11-21T06:52:17;14.73;;;9.77;;
2720;SDS011;1368;49.484;11.112;2023-11-21T06:54:43;12.97;;;9.47;;
2720;SDS011;1368;49.484;11.112;2023-11-21T06:57:10;12.00;;;8.57;;
2720;SDS011;1368;49.484;11.112;2023-11-21T06:59:36;13.57;;;9.37;;
2720;SDS011;1368;49.484;11.112;2023-11-21T07:04:49;12.40;;;8.87;;
2720;SDS011;1368;49.484;11.112;2023-11-21T07:10:29;20.07;;;9.93;;
2720;SDS011;1368;49.484;11.112;2023-11-21T07:12:54;14.20;;;9.50;;
2720;SDS011;1368;49.484;11.112;2023-11-21T07:15:22;21.13;;;10.30;;
2720;SDS011;1368;49.484;11.112;2023-11-21T07:17:47;16.40;;;10.57;;
2720;SDS011;1368;49.484;11.112;2023-11-21T07:20:13;15.53;;;9.87;;
2720;SDS011;1368;49.484;11.112;2023-11-21T07:22:42;16.73;;;8.83;;
2720;SDS011;1368;49.484;11.112;2023-11-21T07:25:07;12.30;;;8.53;;
2720;SDS011;1368;49.484;11.112;2023-11-21T07:27:34;13.70;;;8.67;;
2720;SDS011;1368;49.484;11.112;2023-11-21T07:30:01;14.50;;;9.73;;
2720;SDS011;1368;49.484;11.112;2023-11-21T07:32:29;24.43;;;15.03;;
2720;SDS011;1368;49.484;11.112;2023-11-21T07:34:55;23.60;;;10.47;;
2720;SDS011;1368;49.484;11.112;2023-11-21T07:37:23;16.40;;;10.37;;
2720;SDS011;1368;49.484;11.112;2023-11-21T07:39:48;12.47;;;9.50;;
2720;SDS011;1368;49.484;11.112;2023-11-21T07:42:14;14.70;;;9.83;;
2720;SDS011;1368;49.484;11.112;2023-11-21T07:44:39;24.47;;;14.10;;
2720;SDS011;1368;49.484;11.112;2023-11-21T07:47:05;24.70;;;14.40;;
2720;SDS011;1368;49.484;11.112;2023-11-21T07:49:31;16.30;;;11.40;;
2720;SDS011;1368;49.484;11.112;2023-11-21T07:51:56;22.67;;;13.87;;
2720;SDS011;1368;49.484;11.112;2023-11-21T07:54:22;16.67;;;11.57;;
2720;SDS011;1368;49.484;11.112;2023-11-21T07:56:47;14.20;;;10.33;;
2720;SDS011;1368;49.484;11.112;2023-11-21T07:59:13;18.70;;;9.97;;
2720;SDS011;1368;49.484;11.112;2023-11-21T08:01:39;15.20;;;10.70;;
2720;SDS011;1368;49.484;11.112;2023-11-21T08:04:05;16.20;;;10.23;;
2720;SDS011;1368;49.484;11.112;2023-11-21T08:06:31;11.27;;;8.70;;
2720;SDS011;1368;49.484;11.112;2023-11-21T08:08:57;17.83;;;8.43;;
2720;SDS011;1368;49.484;11.112;2023-11-21T08:11:23;15.90;;;8.80;;
2720;SDS011;1368;49.484;11.112;2023-11-21T08:13:49;11.97;;;8.50;;
2720;SDS011;1368;49.484;11.112;2023-11-21T08:16:15;12.70;;;8.90;;
2720;SDS011;1368;49.484;11.112;2023-11-21T08:18:41;14.70;;;9.17;;
2720;SDS011;1368;49.484;11.112;2023-11-21T08:21:07;13.60;;;7.87;;
2720;SDS011;1368;49.484;11.112;2023-11-21T08:23:33;10.10;;;8.13;;
2720;SDS011;1368;49.484;11.112;2023-11-21T08:25:59;12.47;;;7.90;;
2720;SDS011;1368;49.484;11.112;2023-11-21T08:28:25;11.30;;;8.57;;
2720;SDS011;1368;49.484;11.112;2023-11-21T08:30:51;19.40;;;12.30;;
2720;SDS011;1368;49.484;11.112;2023-11-21T08:33:17;22.07;;;15.53;;
2720;SDS011;1368;49.484;11.112;2023-11-21T08:35:43;36.07;;;21.10;;
2720;SDS011;1368;49.484;11.112;2023-11-21T08:38:10;38.17;;;21.70;;
2720;SDS011;1368;49.484;11.112;2023-11-21T08:40:37;30.90;;;16.03;;
2720;SDS011;1368;49.484;11.112;2023-11-21T08:43:02;20.43;;;12.90;;
2720;SDS011;1368;49.484;11.112;2023-11-21T08:45:29;18.23;;;12.40;;
2720;SDS011;1368;49.484;11.112;2023-11-21T08:50:30;16.20;;;13.40;;
2720;SDS011;1368;49.484;11.112;2023-11-21T08:52:56;21.70;;;14.23;;
2720;SDS011;1368;49.484;11.112;2023-11-21T08:55:21;17.93;;;12.63;;
2720;SDS011;1368;49.484;11.112;2023-11-21T08:57:47;13.93;;;12.00;;
2720;SDS011;1368;49.484;11.112;2023-11-21T09:00:13;18.60;;;13.53;;
2720;SDS011;1368;49.484;11.112;2023-11-21T09:02:41;17.60;;;13.53;;
2720;SDS011;1368;49.484;11.112;2023-11-21T09:05:08;18.10;;;12.30;;
2720;SDS011;1368;49.484;11.112;2023-11-21T09:07:34;20.17;;;13.43;;
2720;SDS011;1368;49.484;11.112;2023-11-21T09:10:00;21.80;;;14.60;;
2720;SDS011;1368;49.484;11.112;2023-11-21T09:12:26;20.70;;;14.40;;
2720;SDS011;1368;49.484;11.112;2023-11-21T09:14:52;19.00;;;13.70;;
2720;SDS011;1368;49.484;11.112;2023-11-21T09:17:18;16.23;;;13.20;;
2720;SDS011;1368;49.484;11.112;2023-11-21T09:19:43;17.30;;;12.43;;
2720;SDS011;1368;49.484;11.112;2023-11-21T09:22:16;21.40;;;15.00;;
2720;SDS011;1368;49.484;11.112;2023-11-21T09:24:42;19.20;;;13.10;;
2720;SDS011;1368;49.484;11.112;2023-11-21T09:27:08;14.10;;;11.37;;
2720;SDS011;1368;49.484;11.112;2023-11-21T09:29:34;20.60;;;13.27;;
2720;SDS011;1368;49.484;11.112;2023-11-21T09:32:00;14.70;;;11.50;;
2720;SDS011;1368;49.484;11.112;2023-11-21T09:34:26;16.07;;;13.70;;
2720;SDS011;1368;49.484;11.112;2023-11-21T09:36:52;17.27;;;11.83;;
2720;SDS011;1368;49.484;11.112;2023-11-21T09:39:18;15.60;;;10.67;;
2720;SDS011;1368;49.484;11.112;2023-11-21T09:41:44;18.37;;;12.40;;
2720;SDS011;1368;49.484;11.112;2023-11-21T09:44:17;13.60;;;11.10;;
2720;SDS011;1368;49.484;11.112;2023-11-21T09:46:44;14.17;;;11.30;;
2720;SDS011;1368;49.484;11.112;2023-11-21T09:49:14;13.63;;;10.40;;
2720;SDS011;1368;49.484;11.112;2023-11-21T09:51:42;14.47;;;9.70;;
2720;SDS011;1368;49.484;11.112;2023-11-21T09:54:10;14.50;;;10.73;;
2720;SDS011;1368;49.484;11.112;2023-11-21T09:56:40;12.20;;;9.93;;
2720;SDS011;1368;49.484;11.112;2023-11-21T09:59:06;18.23;;;10.93;;
2720;SDS011;1368;49.484;11.112;2023-11-21T10:01:35;15.30;;;10.20;;
2720;SDS011;1368;49.484;11.112;2023-11-21T10:04:02;11.07;;;9.47;;
2720;SDS011;1368;49.484;11.112;2023-11-21T10:06:28;12.40;;;9.43;;
2720;SDS011;1368;49.484;11.112;2023-11-21T10:08:55;8.87;;;6.80;;
2720;SDS011;1368;49.484;11.112;2023-11-21T10:11:23;8.23;;;6.80;;
2720;SDS011;1368;49.484;11.112;2023-11-21T10:13:52;10.20;;;7.77;;
2720;SDS011;1368;49.484;11.112;2023-11-21T10:16:19;7.57;;;6.57;;
2720;SDS011;1368;49.484;11.112;2023-11-21T10:18:47;9.67;;;7.80;;
2720;SDS011;1368;49.484;11.112;2023-11-21T10:21:17;11.60;;;6.47;;
2720;SDS011;1368;49.484;11.112;2023-11-21T10:23:43;11.87;;;6.60;;
2720;SDS011;1368;49.484;11.112;2023-11-21T10:26:09;8.37;;;5.77;;
2720;SDS011;1368;49.484;11.112;2023-11-21T10:28:41;9.83;;;6.93;;
2720;SDS011;1368;49.484;11.112;2023-11-21T10:31:20;11.83;;;6.57;;
2720;SDS011;1368;49.484;11.112;2023-11-21T10:33:46;6.70;;;5.83;;
2720;SDS011;1368;49.484;11.112;2023-11-21T10:36:12;7.43;;;6.07;;
2720;SDS011;1368;49.484;11.112;2023-11-21T10:38:42;12.00;;;7.87;;
2720;SDS011;1368;49.484;11.112;2023-11-21T10:41:11;10.63;;;6.27;;
2720;SDS011;1368;49.484;11.112;2023-11-21T10:43:40;10.67;;;6.73;;
2720;SDS011;1368;49.484;11.112;2023-11-21T10:46:06;13.73;;;11.40;;
2720;SDS011;1368;49.484;11.112;2023-11-21T10:48:32;9.63;;;8.30;;
2720;SDS011;1368;49.484;11.112;2023-11-21T10:51:00;7.30;;;5.70;;
2720;SDS011;1368;49.484;11.112;2023-11-21T10:53:38;8.63;;;5.60;;
2720;SDS011;1368;49.484;11.112;2023-11-21T10:56:05;10.50;;;6.60;;
2720;SDS011;1368;49.484;11.112;2023-11-21T10:58:33;8.27;;;5.37;;
2720;SDS011;1368;49.484;11.112;2023-11-21T11:01:01;6.83;;;4.97;;
2720;SDS011;1368;49.484;11.112;2023-11-21T11:03:31;6.27;;;4.80;;
2720;SDS011;1368;49.484;11.112;2023-11-21T11:05:58;8.87;;;5.40;;
2720;SDS011;1368;49.484;11.112;2023-11-21T11:08:24;8.27;;;5.70;;
2720;SDS011;1368;49.484;11.112;2023-11-21T11:10:51;12.07;;;5.20;;
2720;SDS011;1368;49.484;11.112;2023-11-21T11:13:17;7.70;;;5.30;;
2720;SDS011;1368;49.484;11.112;2023-11-21T11:15:44;6.70;;;4.87;;
2720;SDS011;1368;49.484;11.112;2023-11-21T11:18:12;7.60;;;4.60;;
2720;SDS011;1368;49.484;11.112;2023-11-21T11:20:38;10.13;;;4.50;;
2720;SDS011;1368;49.484;11.112;2023-11-21T11:28:52;8.17;;;4.63;;
2720;SDS011;1368;49.484;11.112;2023-11-21T11:31:37;8.37;;;5.40;;
2720;SDS011;1368;49.484;11.112;2023-11-21T11:36:55;7.00;;;4.50;;
2720;SDS011;1368;49.484;11.112;2023-11-21T11:39:38;6.13;;;4.67;;
2720;SDS011;1368;49.484;11.112;2023-11-21T11:42:07;6.60;;;4.50;;
2720;SDS011;1368;49.484;11.112;2023-11-21T11:50:00;8.97;;;5.80;;
2720;SDS011;1368;49.484;11.112;2023-11-21T11:52:47;6.80;;;5.20;;
2720;SDS011;1368;49.484;11.112;2023-11-21T11:55:16;5.33;;;4.53;;
2720;SDS011;1368;49.484;11.112;2023-11-21T11:57:43;7.83;;;4.90;;
2720;SDS011;1368;49.484;11.112;2023-11-21T12:00:15;6.10;;;5.50;;
2720;SDS011;1368;49.484;11.112;2023-11-21T12:02:51;5.57;;;4.63;;
2720;SDS011;1368;49.484;11.112;2023-11-21T12:05:24;5.90;;;4.97;;
2720;SDS011;1368;49.484;11.112;2023-11-21T12:07:56;8.03;;;5.40;;
2720;SDS011;1368;49.484;11.112;2023-11-21T12:10:26;6.10;;;4.87;;
2720;SDS011;1368;49.484;11.112;2023-11-21T12:12:54;6.27;;;5.17;;
2720;SDS011;1368;49.484;11.112;2023-11-21T12:15:21;7.73;;;5.37;;
2720;SDS011;1368;49.484;11.112;2023-11-21T12:17:48;6.27;;;5.03;;
2720;SDS011;1368;49.484;11.112;2023-11-21T12:20:15;8.20;;;5.27;;
2720;SDS011;1368;49.484;11.112;2023-11-21T12:22:44;9.00;;;5.00;;
2720;SDS011;1368;49.484;11.112;2023-11-21T12:25:17;6.97;;;5.33;;
2720;SDS011;1368;49.484;11.112;2023-11-21T12:27:47;7.90;;;5.27;;
2720;SDS011;1368;49.484;11.112;2023-11-21T12:30:17;10.20;;;6.20;;
2720;SDS011;1368;49.484;11.112;2023-11-21T12:32:45;9.63;;;6.57;;
2720;SDS011;1368;49.484;11.112;2023-11-21T12:35:13;9.07;;;6.70;;
2720;SDS011;1368;49.484;11.112;2023-11-21T12:37:39;7.40;;;6.60;;
2720;SDS011;1368;49.484;11.112;2023-11-21T12:40:07;10.63;;;7.87;;
2720;SDS011;1368;49.484;11.112;2023-11-21T12:42:36;7.90;;;6.60;;
2720;SDS011;1368;49.484;11.112;2023-11-21T12:45:07;8.17;;;6.70;;
2720;SDS011;1368;49.484;11.112;2023-11-21T12:47:40;11.93;;;7.10;;
2720;SDS011;1368;49.484;11.112;2023-11-21T12:50:07;9.70;;;7.13;;
2720;SDS011;1368;49.484;11.112;2023-11-21T12:52:39;11.03;;;7.00;;
2720;SDS011;1368;49.484;11.112;2023-11-21T12:55:13;12.33;;;7.60;;
2720;SDS011;1368;49.484;11.112;2023-11-21T12:57:52;8.73;;;6.90;;
2720;SDS011;1368;49.484;11.112;2023-11-21T13:00:20;6.33;;;5.67;;
2720;SDS011;1368;49.484;11.112;2023-11-21T13:02:53;9.20;;;5.63;;
2720;SDS011;1368;49.484;11.112;2023-11-21T13:05:28;9.33;;;6.33;;
2720;SDS011;1368;49.484;11.112;2023-11-21T13:08:00;9.30;;;6.10;;
2720;SDS011;1368;49.484;11.112;2023-11-21T13:10:32;8.83;;;5.80;;
2720;SDS011;1368;49.484;11.112;2023-11-21T13:13:02;8.30;;;6.17;;
2720;SDS011;1368;49.484;11.112;2023-11-21T13:15:30;8.83;;;6.67;;
2720;SDS011;1368;49.484;11.112;2023-11-21T13:17:57;10.43;;;6.70;;
2720;SDS011;1368;49.484;11.112;2023-11-21T13:20:24;9.23;;;6.90;;
2720;SDS011;1368;49.484;11.112;2023-11-21T13:22:53;9.50;;;6.43;;
2720;SDS011;1368;49.484;11.112;2023-11-21T13:25:24;9.53;;;6.73;;
2720;SDS011;1368;49.484;11.112;2023-11-21T13:27:52;11.00;;;6.17;;
2720;SDS011;1368;49.484;11.112;2023-11-21T13:30:18;13.20;;;5.73;;
2720;SDS011;1368;49.484;11.112;2023-11-21T13:32:51;9.43;;;5.77;;
2720;SDS011;1368;49.484;11.112;2023-11-21T13:35:19;11.30;;;6.77;;
2720;SDS011;1368;49.484;11.112;2023-11-21T13:37:49;10.73;;;6.33;;
2720;SDS011;1368;49.484;11.112;2023-11-21T13:40:20;8.60;;;5.73;;
2720;SDS011;1368;49.484;11.112;2023-11-21T13:42:50;10.00;;;6.20;;
2720;SDS011;1368;49.484;11.112;2023-11-21T13:45:20;8.93;;;6.37;;
2720;SDS011;1368;49.484;11.112;2023-11-21T13:47:47;17.03;;;8.07;;
2720;SDS011;1368;49.484;11.112;2023-11-21T13:50:18;10.70;;;6.50;;
2720;SDS011;1368;49.484;11.112;2023-11-21T13:52:48;8.43;;;7.13;;
2720;SDS011;1368;49.484;11.112;2023-11-21T13:55:25;11.23;;;6.53;;
2720;SDS011;1368;49.484;11.112;2023-11-21T13:57:52;11.07;;;7.17;;
2720;SDS011;1368;49.484;11.112;2023-11-21T14:00:18;8.60;;;6.40;;
2720;SDS011;1368;49.484;11.112;2023-11-21T14:03:08;8.40;;;6.10;;
2720;SDS011;1368;49.484;11.112;2023-11-21T14:05:42;9.67;;;6.87;;
2720;SDS011;1368;49.484;11.112;2023-11-21T14:08:09;8.10;;;5.53;;
2720;SDS011;1368;49.484;11.112;2023-11-21T14:10:37;10.60;;;5.30;;
2720;SDS011;1368;49.484;11.112;2023-11-21T14:13:08;12.00;;;5.63;;
2720;SDS011;1368;49.484;11.112;2023-11-21T14:15:41;7.63;;;5.40;;
2720;SDS011;1368;49.484;11.112;2023-11-21T14:18:08;7.97;;;5.60;;
2720;SDS011;1368;49.484;11.112;2023-11-21T14:20:41;10.23;;;5.50;;
2720;SDS011;1368;49.484;11.112;2023-11-21T14:23:07;9.70;;;5.07;;
2720;SDS011;1368;49.484;11.112;2023-11-21T14:25:36;14.47;;;5.93;;
2720;SDS011;1368;49.484;11.112;2023-11-21T14:28:02;8.50;;;5.53;;
2720;SDS011;1368;49.484;11.112;2023-11-21T14:30:29;8.30;;;5.53;;
2720;SDS011;1368;49.484;11.112;2023-11-21T14:32:58;8.63;;;5.50;;
2720;SDS011;1368;49.484;11.112;2023-11-21T14:35:24;9.50;;;6.00;;
2720;SDS011;1368;49.484;11.112;2023-11-21T14:37:49;7.23;;;5.10;;
2720;SDS011;1368;49.484;11.112;2023-11-21T14:40:15;8.87;;;4.93;;
2720;SDS011;1368;49.484;11.112;2023-11-21T14:42:43;7.57;;;4.70;;
2720;SDS011;1368;49.484;11.112;2023-11-21T14:45:12;7.93;;;5.00;;
2720;SDS011;1368;49.484;11.112;2023-11-21T14:47:41;9.33;;;5.20;;
2720;SDS011;1368;49.484;11.112;2023-11-21T14:50:11;9.93;;;4.87;;
2720;SDS011;1368;49.484;11.112;2023-11-21T14:53:03;8.10;;;4.77;;
2720;SDS011;1368;49.484;11.112;2023-11-21T14:55:31;5.30;;;4.00;;
2720;SDS011;1368;49.484;11.112;2023-11-21T14:58:04;8.03;;;4.83;;
2720;SDS011;1368;49.484;11.112;2023-11-21T15:00:30;7.50;;;5.07;;
2720;SDS011;1368;49.484;11.112;2023-11-21T15:02:58;9.47;;;5.80;;
2720;SDS011;1368;49.484;11.112;2023-11-21T15:05:25;7.70;;;4.87;;
2720;SDS011;1368;49.484;11.112;2023-11-21T15:07:52;8.20;;;4.93;;
2720;SDS011;1368;49.484;11.112;2023-11-21T15:10:22;10.50;;;4.87;;
2720;SDS011;1368;49.484;11.112;2023-11-21T15:13:03;8.20;;;5.40;;
2720;SDS011;1368;49.484;11.112;2023-11-21T15:15:28;9.77;;;5.97;;
2720;SDS011;1368;49.484;11.112;2023-11-21T15:17:56;9.80;;;6.20;;